sensor_id;sensor_type;location;lat;lon;timestamp;pressure;altitude;pressure_sealevel;temperature;humidity
55424;BME280;41294;42.666;23.350;2022-11-15T00:00:26;95650.19;;;4.29;100.00
55424;BME280;41294;42.666;23.350;2022-11-15T00:02:52;95645.41;;;4.14;100.00
55424;BME280;41294;42.666;23.350;2022-11-15T00:05:18;95636.84;;;4.10;100.00
55424;BME280;41294;42.666;23.350;2022-11-15T00:07:43;95646.56;;;4.06;100.00
55424;BME280;41294;42.666;23.350;2022-11-15T00:10:09;95647.31;;;4.03;100.00
55424;BME280;41294;42.666;23.350;2022-11-15T00:12:34;95646.19;;;4.04;100.00
55424;BME280;41294;42.666;23.350;2022-11-15T00:15:00;95641.38;;;3.99;100.00
55424;BME280;41294;42.666;23.350;2022-11-15T00:17:25;95645.06;;;4.08;100.00
55424;BME280;41294;42.666;23.350;2022-11-15T00:19:50;95638.34;;;4.11;100.00
55424;BME280;41294;42.666;23.350;2022-11-15T00:22:16;95644.75;;;3.89;100.00
55424;BME280;41294;42.666;23.350;2022-11-15T00:24:41;95645.13;;;3.88;100.00
55424;BME280;41294;42.666;23.350;2022-11-15T00:27:07;95651.09;;;3.78;100.00
55424;BME280;41294;42.666;23.350;2022-11-15T00:29:33;95638.09;;;3.71;100.00
55424;BME280;41294;42.666;23.350;2022-11-15T00:31:58;95632.53;;;3.72;100.00
55424;BME280;41294;42.666;23.350;2022-11-15T00:34:24;95625.44;;;3.76;100.00
55424;BME280;41294;42.666;23.350;2022-11-15T00:36:50;95628.78;;;3.73;100.00
55424;BME280;41294;42.666;23.350;2022-11-15T00:39:16;95633.66;;;3.71;100.00
55424;BME280;41294;42.666;23.350;2022-11-15T00:41:42;95617.66;;;3.69;100.00
55424;BME280;41294;42.666;23.350;2022-11-15T00:44:09;95624.31;;;3.77;100.00
55424;BME280;41294;42.666;23.350;2022-11-15T00:46:34;95619.50;;;3.76;100.00
55424;BME280;41294;42.666;23.350;2022-11-15T00:49:00;95619.47;;;3.83;100.00
55424;BME280;41294;42.666;23.350;2022-11-15T00:51:30;95621.31;;;3.82;100.00
55424;BME280;41294;42.666;23.350;2022-11-15T00:53:56;95620.63;;;3.75;100.00
55424;BME280;41294;42.666;23.350;2022-11-15T00:56:22;95620.63;;;3.71;100.00
55424;BME280;41294;42.666;23.350;2022-11-15T00:58:48;95613.91;;;3.77;100.00
55424;BME280;41294;42.666;23.350;2022-11-15T01:01:16;95612.81;;;3.71;100.00
55424;BME280;41294;42.666;23.350;2022-11-15T01:03:42;95616.91;;;3.69;100.00
55424;BME280;41294;42.666;23.350;2022-11-15T01:06:08;95612.09;;;3.60;100.00
55424;BME280;41294;42.666;23.350;2022-11-15T01:08:34;95621.41;;;3.61;100.00
55424;BME280;41294;42.666;23.350;2022-11-15T01:11:11;95617.28;;;3.67;100.00
55424;BME280;41294;42.666;23.350;2022-11-15T01:13:39;95612.47;;;3.62;100.00
55424;BME280;41294;42.666;23.350;2022-11-15T01:16:17;95619.16;;;3.63;100.00
55424;BME280;41294;42.666;23.350;2022-11-15T01:18:45;95615.06;;;3.66;100.00
55424;BME280;41294;42.666;23.350;2022-11-15T01:21:15;95618.41;;;3.59;100.00
55424;BME280;41294;42.666;23.350;2022-11-15T01:23:41;95609.16;;;3.44;100.00
55424;BME280;41294;42.666;23.350;2022-11-15T01:26:10;95615.47;;;3.50;100.00
55424;BME280;41294;42.666;23.350;2022-11-15T01:28:37;95605.03;;;3.54;100.00
55424;BME280;41294;42.666;23.350;2022-11-15T01:31:06;95605.78;;;3.58;100.00
55424;BME280;41294;42.666;23.350;2022-11-15T01:33:34;95602.78;;;3.63;100.00
55424;BME280;41294;42.666;23.350;2022-11-15T01:36:06;95601.31;;;3.58;100.00
55424;BME280;41294;42.666;23.350;2022-11-15T01:38:32;95610.66;;;3.49;100.00
55424;BME280;41294;42.666;23.350;2022-11-15T01:40:57;95602.81;;;3.52;100.00
55424;BME280;41294;42.666;23.350;2022-11-15T01:43:27;95603.19;;;3.54;100.00
55424;BME280;41294;42.666;23.350;2022-11-15T01:46:01;95608.78;;;3.49;100.00
55424;BME280;41294;42.666;23.350;2022-11-15T01:48:34;95611.03;;;3.37;100.00
55424;BME280;41294;42.666;23.350;2022-11-15T01:51:03;95606.56;;;3.30;100.00
55424;BME280;41294;42.666;23.350;2022-11-15T01:53:32;95608.06;;;3.24;100.00
55424;BME280;41294;42.666;23.350;2022-11-15T01:56:02;95600.66;;;3.30;100.00
55424;BME280;41294;42.666;23.350;2022-11-15T01:58:29;95600.66;;;3.26;100.00
55424;BME280;41294;42.666;23.350;2022-11-15T02:00:54;95602.13;;;3.27;100.00
55424;BME280;41294;42.666;23.350;2022-11-15T02:03:22;95602.88;;;3.24;100.00
55424;BME280;41294;42.666;23.350;2022-11-15T02:05:52;95604.38;;;3.25;100.00
55424;BME280;41294;42.666;23.350;2022-11-15T02:08:18;95598.41;;;3.25;100.00
55424;BME280;41294;42.666;23.350;2022-11-15T02:10:46;95597.66;;;3.35;100.00
55424;BME280;41294;42.666;23.350;2022-11-15T02:13:14;95597.66;;;3.31;100.00
55424;BME280;41294;42.666;23.350;2022-11-15T02:15:48;95601.41;;;3.20;100.00
55424;BME280;41294;42.666;23.350;2022-11-15T02:18:32;95598.03;;;3.13;100.00
55424;BME280;41294;42.666;23.350;2022-11-15T02:21:20;95597.69;;;3.18;100.00
55424;BME280;41294;42.666;23.350;2022-11-15T02:23:54;95601.03;;;3.15;100.00
55424;BME280;41294;42.666;23.350;2022-11-15T02:26:54;95595.09;;;3.18;100.00
55424;BME280;41294;42.666;23.350;2022-11-15T02:37:38;95599.91;;;3.33;100.00
55424;BME280;41294;42.666;23.350;2022-11-15T02:40:16;95590.97;;;3.23;100.00
55424;BME280;41294;42.666;23.350;2022-11-15T02:42:54;95591.00;;;3.10;100.00
55424;BME280;41294;42.666;23.350;2022-11-15T02:45:44;95591.00;;;3.10;100.00
55424;BME280;41294;42.666;23.350;2022-11-15T02:48:12;95589.13;;;3.10;100.00
55424;BME280;41294;42.666;23.350;2022-11-15T02:50:39;95593.97;;;3.22;100.00
55424;BME280;41294;42.666;23.350;2022-11-15T02:53:04;95598.06;;;3.23;100.00
55424;BME280;41294;42.666;23.350;2022-11-15T02:55:50;95593.97;;;3.15;100.00
55424;BME280;41294;42.666;23.350;2022-11-15T02:58:24;95590.63;;;3.15;100.00
55424;BME280;41294;42.666;23.350;2022-11-15T03:01:04;95599.53;;;3.24;100.00
55424;BME280;41294;42.666;23.350;2022-11-15T03:03:53;95593.22;;;3.32;100.00
55424;BME280;41294;42.666;23.350;2022-11-15T03:06:52;95599.50;;;3.55;100.00
55424;BME280;41294;42.666;23.350;2022-11-15T03:09:51;95599.09;;;3.57;100.00
55424;BME280;41294;42.666;23.350;2022-11-15T03:15:14;95593.84;;;3.71;100.00
55424;BME280;41294;42.666;23.350;2022-11-15T03:17:49;95586.78;;;3.71;100.00
55424;BME280;41294;42.666;23.350;2022-11-15T03:20:17;95590.16;;;3.65;100.00
55424;BME280;41294;42.666;23.350;2022-11-15T03:22:45;95588.28;;;3.72;100.00
55424;BME280;41294;42.666;23.350;2022-11-15T03:25:17;95587.16;;;3.77;100.00
55424;BME280;41294;42.666;23.350;2022-11-15T03:27:50;95580.47;;;3.69;100.00
55424;BME280;41294;42.666;23.350;2022-11-15T03:30:16;95588.94;;;3.87;100.00
55424;BME280;41294;42.666;23.350;2022-11-15T03:32:49;95579.63;;;3.96;100.00
55424;BME280;41294;42.666;23.350;2022-11-15T03:35:39;95592.25;;;3.98;100.00
55424;BME280;41294;42.666;23.350;2022-11-15T03:38:20;95564.84;;;3.69;100.00
55424;BME280;41294;42.666;23.350;2022-11-15T03:41:00;95571.88;;;3.75;100.00
55424;BME280;41294;42.666;23.350;2022-11-15T03:46:21;95566.31;;;3.77;100.00
55424;BME280;41294;42.666;23.350;2022-11-15T03:48:54;95561.09;;;3.73;100.00
55424;BME280;41294;42.666;23.350;2022-11-15T03:51:22;95558.91;;;3.68;100.00
55424;BME280;41294;42.666;23.350;2022-11-15T03:53:47;95554.69;;;3.99;100.00
55424;BME280;41294;42.666;23.350;2022-11-15T03:56:13;95558.72;;;4.10;100.00
55424;BME280;41294;42.666;23.350;2022-11-15T03:58:38;95553.63;;;3.89;100.00
55424;BME280;41294;42.666;23.350;2022-11-15T04:01:04;95549.53;;;3.88;100.00
55424;BME280;41294;42.666;23.350;2022-11-15T04:03:29;95562.66;;;3.60;100.00
55424;BME280;41294;42.666;23.350;2022-11-15T04:05:55;95559.81;;;3.10;100.00
55424;BME280;41294;42.666;23.350;2022-11-15T04:08:21;95559.03;;;3.23;100.00
55424;BME280;41294;42.666;23.350;2022-11-15T04:10:51;95552.69;;;3.41;100.00
55424;BME280;41294;42.666;23.350;2022-11-15T04:13:16;95550.03;;;3.55;100.00
55424;BME280;41294;42.666;23.350;2022-11-15T04:15:41;95552.31;;;3.39;100.00
55424;BME280;41294;42.666;23.350;2022-11-15T04:18:07;95553.84;;;3.06;100.00
55424;BME280;41294;42.666;23.350;2022-11-15T04:20:32;95547.56;;;2.86;100.00
55424;BME280;41294;42.666;23.350;2022-11-15T04:23:22;95552.75;;;2.79;100.00
55424;BME280;41294;42.666;23.350;2022-11-15T04:28:35;95544.19;;;3.13;100.00
55424;BME280;41294;42.666;23.350;2022-11-15T04:31:00;95539.31;;;3.29;100.00
55424;BME280;41294;42.666;23.350;2022-11-15T04:33:26;95548.66;;;3.20;100.00
55424;BME280;41294;42.666;23.350;2022-11-15T04:35:51;95548.66;;;3.20;100.00
55424;BME280;41294;42.666;23.350;2022-11-15T04:38:36;95546.81;;;2.96;100.00
55424;BME280;41294;42.666;23.350;2022-11-15T04:41:02;95556.44;;;3.16;100.00
55424;BME280;41294;42.666;23.350;2022-11-15T04:43:28;95555.38;;;2.89;100.00
55424;BME280;41294;42.666;23.350;2022-11-15T04:45:55;95553.16;;;2.70;100.00
55424;BME280;41294;42.666;23.350;2022-11-15T04:48:20;95554.63;;;2.75;100.00
55424;BME280;41294;42.666;23.350;2022-11-15T04:50:48;95550.53;;;3.09;100.00
55424;BME280;41294;42.666;23.350;2022-11-15T04:53:14;95555.34;;;3.10;100.00
55424;BME280;41294;42.666;23.350;2022-11-15T04:55:39;95560.53;;;3.27;100.00
55424;BME280;41294;42.666;23.350;2022-11-15T04:58:05;95551.50;;;3.56;100.00
55424;BME280;41294;42.666;23.350;2022-11-15T05:00:30;95549.94;;;3.80;100.00
55424;BME280;41294;42.666;23.350;2022-11-15T05:02:56;95550.28;;;3.85;100.00
55424;BME280;41294;42.666;23.350;2022-11-15T05:05:41;95551.38;;;3.91;100.00
55424;BME280;41294;42.666;23.350;2022-11-15T05:08:06;95552.44;;;4.01;100.00
55424;BME280;41294;42.666;23.350;2022-11-15T05:10:32;95545.66;;;4.20;100.00
55424;BME280;41294;42.666;23.350;2022-11-15T05:12:57;95551.59;;;4.21;100.00
55424;BME280;41294;42.666;23.350;2022-11-15T05:15:22;95553.78;;;4.26;100.00
55424;BME280;41294;42.666;23.350;2022-11-15T05:17:48;95552.59;;;4.41;100.00
55424;BME280;41294;42.666;23.350;2022-11-15T05:20:13;95548.09;;;4.45;100.00
55424;BME280;41294;42.666;23.350;2022-11-15T05:22:39;95548.41;;;4.54;100.00
55424;BME280;41294;42.666;23.350;2022-11-15T05:25:05;95551.72;;;4.58;100.00
55424;BME280;41294;42.666;23.350;2022-11-15T05:27:31;95550.97;;;4.57;100.00
55424;BME280;41294;42.666;23.350;2022-11-15T05:29:57;95546.94;;;4.49;100.00
55424;BME280;41294;42.666;23.350;2022-11-15T05:32:23;95544.41;;;4.39;100.00
55424;BME280;41294;42.666;23.350;2022-11-15T05:34:48;95551.06;;;4.47;100.00
55424;BME280;41294;42.666;23.350;2022-11-15T05:37:14;95551.41;;;4.49;100.00
55424;BME280;41294;42.666;23.350;2022-11-15T05:39:40;95544.66;;;4.55;100.00
55424;BME280;41294;42.666;23.350;2022-11-15T05:42:13;95553.75;;;4.36;100.00
55424;BME280;41294;42.666;23.350;2022-11-15T05:44:43;95548.94;;;4.28;100.00
55424;BME280;41294;42.666;23.350;2022-11-15T05:47:13;95554.81;;;3.67;100.00
55424;BME280;41294;42.666;23.350;2022-11-15T05:49:42;95552.19;;;3.71;100.00
55424;BME280;41294;42.666;23.350;2022-11-15T05:52:11;95558.16;;;3.71;100.00
55424;BME280;41294;42.666;23.350;2022-11-15T05:54:38;95554.34;;;3.93;100.00
55424;BME280;41294;42.666;23.350;2022-11-15T05:57:04;95553.72;;;3.65;100.00
55424;BME280;41294;42.666;23.350;2022-11-15T05:59:31;95552.19;;;3.71;100.00
55424;BME280;41294;42.666;23.350;2022-11-15T06:01:58;95557.03;;;3.69;100.00
55424;BME280;41294;42.666;23.350;2022-11-15T06:04:23;95550.25;;;3.89;100.00
55424;BME280;41294;42.666;23.350;2022-11-15T06:06:49;95560.25;;;4.04;100.00
55424;BME280;41294;42.666;23.350;2022-11-15T06:09:14;95565.44;;;4.07;100.00
55424;BME280;41294;42.666;23.350;2022-11-15T06:11:40;95564.34;;;4.05;100.00
55424;BME280;41294;42.666;23.350;2022-11-15T06:14:05;95557.66;;;4.01;100.00
55424;BME280;41294;42.666;23.350;2022-11-15T06:16:32;95561.59;;;4.26;100.00
55424;BME280;41294;42.666;23.350;2022-11-15T06:18:57;95566.69;;;4.47;100.00
55424;BME280;41294;42.666;23.350;2022-11-15T06:21:23;95569.66;;;4.49;100.00
55424;BME280;41294;42.666;23.350;2022-11-15T06:23:48;95567.47;;;4.40;100.00
55424;BME280;41294;42.666;23.350;2022-11-15T06:26:15;95567.44;;;4.47;100.00
55424;BME280;41294;42.666;23.350;2022-11-15T06:28:40;95564.41;;;4.56;100.00
55424;BME280;41294;42.666;23.350;2022-11-15T06:31:08;95562.84;;;4.69;100.00
55424;BME280;41294;42.666;23.350;2022-11-15T06:33:34;95559.25;;;4.96;100.00
55424;BME280;41294;42.666;23.350;2022-11-15T06:36:02;95555.47;;;4.53;100.00
55424;BME280;41294;42.666;23.350;2022-11-15T06:38:28;95554.72;;;4.56;100.00
55424;BME280;41294;42.666;23.350;2022-11-15T06:40:53;95552.28;;;4.83;100.00
55424;BME280;41294;42.666;23.350;2022-11-15T06:43:18;95550.03;;;4.85;100.00
55424;BME280;41294;42.666;23.350;2022-11-15T06:45:44;95556.25;;;4.97;100.00
55424;BME280;41294;42.666;23.350;2022-11-15T06:48:09;95550.47;;;5.16;100.00
55424;BME280;41294;42.666;23.350;2022-11-15T06:50:34;95552.69;;;5.21;100.00
55424;BME280;41294;42.666;23.350;2022-11-15T06:53:01;95556.78;;;5.19;100.00
55424;BME280;41294;42.666;23.350;2022-11-15T06:55:27;95556.47;;;5.17;100.00
55424;BME280;41294;42.666;23.350;2022-11-15T06:57:52;95559.44;;;5.15;100.00
55424;BME280;41294;42.666;23.350;2022-11-15T07:00:19;95557.63;;;4.69;100.00
55424;BME280;41294;42.666;23.350;2022-11-15T07:02:46;95550.97;;;4.57;100.00
55424;BME280;41294;42.666;23.350;2022-11-15T07:05:12;95545.66;;;4.71;100.00
55424;BME280;41294;42.666;23.350;2022-11-15T07:07:38;95548.94;;;4.82;100.00
55424;BME280;41294;42.666;23.350;2022-11-15T07:10:04;95546.44;;;5.12;100.00
55424;BME280;41294;42.666;23.350;2022-11-15T07:12:29;95554.88;;;5.26;100.00
55424;BME280;41294;42.666;23.350;2022-11-15T07:14:55;95548.38;;;5.04;100.00
55424;BME280;41294;42.666;23.350;2022-11-15T07:17:20;95547.47;;;5.18;100.00
55424;BME280;41294;42.666;23.350;2022-11-15T07:19:45;95547.78;;;5.27;100.00
55424;BME280;41294;42.666;23.350;2022-11-15T07:22:11;95542.38;;;5.07;100.00
55424;BME280;41294;42.666;23.350;2022-11-15T07:24:36;95545.22;;;5.20;100.00
55424;BME280;41294;42.666;23.350;2022-11-15T07:27:01;95542.31;;;5.14;100.00
55424;BME280;41294;42.666;23.350;2022-11-15T07:29:27;95541.19;;;4.72;100.00
55424;BME280;41294;42.666;23.350;2022-11-15T07:31:52;95550.38;;;4.90;100.00
55424;BME280;41294;42.666;23.350;2022-11-15T07:34:18;95540.69;;;5.27;100.00
55424;BME280;41294;42.666;23.350;2022-11-15T07:36:43;95550.28;;;5.37;100.00
55424;BME280;41294;42.666;23.350;2022-11-15T07:39:09;95544.03;;;5.65;100.00
55424;BME280;41294;42.666;23.350;2022-11-15T07:41:34;95549.38;;;5.54;100.00
55424;BME280;41294;42.666;23.350;2022-11-15T07:44:00;95541.19;;;5.52;100.00
55424;BME280;41294;42.666;23.350;2022-11-15T07:46:26;95546.47;;;5.45;100.00
55424;BME280;41294;42.666;23.350;2022-11-15T07:48:52;95544.00;;;5.31;100.00
55424;BME280;41294;42.666;23.350;2022-11-15T07:51:17;95542.06;;;5.72;100.00
55424;BME280;41294;42.666;23.350;2022-11-15T07:53:43;95546.72;;;5.91;100.00
55424;BME280;41294;42.666;23.350;2022-11-15T07:56:09;95535.56;;;5.87;100.00
55424;BME280;41294;42.666;23.350;2022-11-15T07:58:35;95541.69;;;5.73;100.00
55424;BME280;41294;42.666;23.350;2022-11-15T08:01:08;95541.69;;;5.73;100.00
55424;BME280;41294;42.666;23.350;2022-11-15T08:03:34;95538.91;;;5.91;100.00
55424;BME280;41294;42.666;23.350;2022-11-15T08:06:00;95541.94;;;6.16;100.00
55424;BME280;41294;42.666;23.350;2022-11-15T08:08:26;95537.19;;;6.34;100.00
55424;BME280;41294;42.666;23.350;2022-11-15T08:10:51;95533.78;;;6.37;100.00
55424;BME280;41294;42.666;23.350;2022-11-15T08:13:17;95537.69;;;6.52;100.00
55424;BME280;41294;42.666;23.350;2022-11-15T08:15:42;95535.88;;;6.71;100.00
55424;BME280;41294;42.666;23.350;2022-11-15T08:18:13;95536.50;;;6.56;100.00
55424;BME280;41294;42.666;23.350;2022-11-15T08:20:40;95530.19;;;6.53;100.00
55424;BME280;41294;42.666;23.350;2022-11-15T08:23:07;95532.34;;;6.58;100.00
55424;BME280;41294;42.666;23.350;2022-11-15T08:25:34;95531.75;;;6.48;100.00
55424;BME280;41294;42.666;23.350;2022-11-15T08:28:03;95524.03;;;6.41;100.00
55424;BME280;41294;42.666;23.350;2022-11-15T08:30:29;95523.72;;;6.35;100.00
55424;BME280;41294;42.666;23.350;2022-11-15T08:32:56;95521.47;;;6.37;100.00
55424;BME280;41294;42.666;23.350;2022-11-15T08:35:22;95534.47;;;6.41;100.00
55424;BME280;41294;42.666;23.350;2022-11-15T08:37:49;95523.78;;;6.32;100.00
55424;BME280;41294;42.666;23.350;2022-11-15T08:40:15;95518.34;;;6.19;100.00
55424;BME280;41294;42.666;23.350;2022-11-15T08:42:40;95516.78;;;6.52;100.00
55424;BME280;41294;42.666;23.350;2022-11-15T08:45:08;95510.66;;;6.61;100.00
55424;BME280;41294;42.666;23.350;2022-11-15T08:47:34;95511.88;;;6.76;100.00
55424;BME280;41294;42.666;23.350;2022-11-15T08:49:59;95510.97;;;7.09;100.00
55424;BME280;41294;42.666;23.350;2022-11-15T08:52:25;95504.31;;;7.24;100.00
55424;BME280;41294;42.666;23.350;2022-11-15T08:54:51;95510.94;;;7.32;100.00
55424;BME280;41294;42.666;23.350;2022-11-15T08:57:16;95507.91;;;7.33;99.95
55424;BME280;41294;42.666;23.350;2022-11-15T08:59:42;95510.38;;;7.21;100.00
55424;BME280;41294;42.666;23.350;2022-11-15T09:02:11;95503.69;;;6.74;100.00
55424;BME280;41294;42.666;23.350;2022-11-15T09:04:39;95495.50;;;6.95;100.00
55424;BME280;41294;42.666;23.350;2022-11-15T09:07:05;95492.25;;;6.88;100.00
55424;BME280;41294;42.666;23.350;2022-11-15T09:09:30;95490.72;;;6.90;100.00
55424;BME280;41294;42.666;23.350;2022-11-15T09:11:57;95485.69;;;7.22;100.00
55424;BME280;41294;42.666;23.350;2022-11-15T09:14:22;95485.38;;;6.97;100.00
55424;BME280;41294;42.666;23.350;2022-11-15T09:16:48;95476.13;;;6.93;100.00
55424;BME280;41294;42.666;23.350;2022-11-15T09:19:13;95480.56;;;7.15;100.00
55424;BME280;41294;42.666;23.350;2022-11-15T09:21:40;95480.66;;;6.89;100.00
55424;BME280;41294;42.666;23.350;2022-11-15T09:24:06;95475.19;;;6.34;100.00
55424;BME280;41294;42.666;23.350;2022-11-15T09:26:31;95474.63;;;6.46;100.00
55424;BME280;41294;42.666;23.350;2022-11-15T09:28:57;95461.69;;;6.62;100.00
55424;BME280;41294;42.666;23.350;2022-11-15T09:31:23;95467.88;;;6.71;100.00
55424;BME280;41294;42.666;23.350;2022-11-15T09:33:48;95462.22;;;6.96;100.00
55424;BME280;41294;42.666;23.350;2022-11-15T09:36:13;95453.59;;;7.18;100.00
55424;BME280;41294;42.666;23.350;2022-11-15T09:38:39;95448.94;;;7.45;100.00
55424;BME280;41294;42.666;23.350;2022-11-15T09:48:55;95437.00;;;8.78;93.38
55424;BME280;41294;42.666;23.350;2022-11-15T09:51:49;95439.22;;;9.08;91.36
55424;BME280;41294;42.666;23.350;2022-11-15T09:56:47;95422.84;;;9.70;88.20
55424;BME280;41294;42.666;23.350;2022-11-15T10:05:00;95409.31;;;10.33;85.40
55424;BME280;41294;42.666;23.350;2022-11-15T10:07:54;95404.38;;;11.03;80.00
55424;BME280;41294;42.666;23.350;2022-11-15T10:10:39;95405.63;;;10.43;80.33
55424;BME280;41294;42.666;23.350;2022-11-15T10:13:16;95395.66;;;9.23;86.43
55424;BME280;41294;42.666;23.350;2022-11-15T10:15:43;95399.00;;;8.83;88.71
55424;BME280;41294;42.666;23.350;2022-11-15T10:21:18;95382.22;;;10.11;84.28
55424;BME280;41294;42.666;23.350;2022-11-15T10:23:45;95389.13;;;11.19;79.36
55424;BME280;41294;42.666;23.350;2022-11-15T10:26:15;95385.13;;;11.57;75.83
55424;BME280;41294;42.666;23.350;2022-11-15T10:28:42;95386.25;;;11.78;75.31
55424;BME280;41294;42.666;23.350;2022-11-15T10:31:33;95369.88;;;10.88;77.10
55424;BME280;41294;42.666;23.350;2022-11-15T10:34:23;95372.81;;;10.69;79.44
55424;BME280;41294;42.666;23.350;2022-11-15T10:36:59;95362.94;;;9.65;83.39
55424;BME280;41294;42.666;23.350;2022-11-15T10:39:26;95361.47;;;9.64;84.75
55424;BME280;41294;42.666;23.350;2022-11-15T10:41:52;95348.31;;;9.88;84.04
55424;BME280;41294;42.666;23.350;2022-11-15T10:49:23;95339.97;;;9.15;90.25
55424;BME280;41294;42.666;23.350;2022-11-15T10:51:53;95331.22;;;8.65;90.93
55424;BME280;41294;42.666;23.350;2022-11-15T10:56:58;95338.94;;;8.56;92.32
55424;BME280;41294;42.666;23.350;2022-11-15T10:59:32;95336.50;;;9.06;90.64
55424;BME280;41294;42.666;23.350;2022-11-15T11:01:59;95324.22;;;8.75;91.52
55424;BME280;41294;42.666;23.350;2022-11-15T11:04:25;95314.50;;;8.59;93.09
55424;BME280;41294;42.666;23.350;2022-11-15T11:06:56;95305.63;;;8.69;92.00
55424;BME280;41294;42.666;23.350;2022-11-15T11:11:54;95308.03;;;8.35;94.37
55424;BME280;41294;42.666;23.350;2022-11-15T11:14:30;95297.44;;;8.67;94.67
55424;BME280;41294;42.666;23.350;2022-11-15T11:22:34;95299.28;;;8.95;91.79
55424;BME280;41294;42.666;23.350;2022-11-15T11:28:23;95278.16;;;8.45;94.68
55424;BME280;41294;42.666;23.350;2022-11-15T11:37:12;95265.38;;;9.13;93.02
55424;BME280;41294;42.666;23.350;2022-11-15T11:45:14;95248.09;;;9.99;85.95
55424;BME280;41294;42.666;23.350;2022-11-15T11:47:51;95248.69;;;8.95;91.66
55424;BME280;41294;42.666;23.350;2022-11-15T11:50:24;95240.50;;;9.30;90.73
55424;BME280;41294;42.666;23.350;2022-11-15T11:55:30;95240.06;;;9.56;88.63
55424;BME280;41294;42.666;23.350;2022-11-15T11:58:19;95231.88;;;9.17;90.14
55424;BME280;41294;42.666;23.350;2022-11-15T12:00:55;95231.97;;;9.01;91.40
55424;BME280;41294;42.666;23.350;2022-11-15T12:03:41;95219.59;;;8.89;93.41
55424;BME280;41294;42.666;23.350;2022-11-15T12:09:06;95210.97;;;9.01;91.91
55424;BME280;41294;42.666;23.350;2022-11-15T12:11:50;95201.63;;;8.88;93.70
55424;BME280;41294;42.666;23.350;2022-11-15T12:16:55;95202.19;;;9.66;90.10
55424;BME280;41294;42.666;23.350;2022-11-15T12:19:22;95201.00;;;9.79;88.18
55424;BME280;41294;42.666;23.350;2022-11-15T12:22:19;95199.38;;;9.48;90.16
55424;BME280;41294;42.666;23.350;2022-11-15T12:24:52;95192.63;;;10.06;87.22
55424;BME280;41294;42.666;23.350;2022-11-15T12:27:21;95181.88;;;10.34;86.33
55424;BME280;41294;42.666;23.350;2022-11-15T12:30:11;95187.41;;;9.60;88.67
55424;BME280;41294;42.666;23.350;2022-11-15T12:32:39;95180.94;;;9.02;92.75
55424;BME280;41294;42.666;23.350;2022-11-15T12:35:42;95176.88;;;9.60;90.45
55424;BME280;41294;42.666;23.350;2022-11-15T12:38:10;95173.00;;;10.19;87.37
55424;BME280;41294;42.666;23.350;2022-11-15T12:41:14;95173.03;;;10.71;84.38
55424;BME280;41294;42.666;23.350;2022-11-15T12:43:42;95162.41;;;10.32;85.20
55424;BME280;41294;42.666;23.350;2022-11-15T12:46:12;95159.53;;;9.62;88.64
55424;BME280;41294;42.666;23.350;2022-11-15T12:51:05;95160.63;;;9.40;90.89
55424;BME280;41294;42.666;23.350;2022-11-15T12:53:33;95154.28;;;9.62;90.65
55424;BME280;41294;42.666;23.350;2022-11-15T12:56:09;95157.06;;;9.46;90.86
55424;BME280;41294;42.666;23.350;2022-11-15T12:58:42;95151.47;;;9.78;90.23
55424;BME280;41294;42.666;23.350;2022-11-15T13:01:09;95154.00;;;9.48;91.28
55424;BME280;41294;42.666;23.350;2022-11-15T13:03:35;95152.34;;;9.29;92.18
55424;BME280;41294;42.666;23.350;2022-11-15T13:06:06;95151.28;;;9.73;89.83
55424;BME280;41294;42.666;23.350;2022-11-15T13:08:44;95143.00;;;9.62;90.82
55424;BME280;41294;42.666;23.350;2022-11-15T13:11:44;95142.84;;;9.44;91.16
55424;BME280;41294;42.666;23.350;2022-11-15T13:19:47;95135.94;;;9.37;92.36
55424;BME280;41294;42.666;23.350;2022-11-15T13:22:13;95127.56;;;9.30;92.95
55424;BME280;41294;42.666;23.350;2022-11-15T13:24:59;95128.00;;;9.62;91.14
55424;BME280;41294;42.666;23.350;2022-11-15T13:27:25;95130.16;;;9.42;91.58
55424;BME280;41294;42.666;23.350;2022-11-15T13:29:52;95128.09;;;9.25;93.16
55424;BME280;41294;42.666;23.350;2022-11-15T13:32:18;95128.63;;;9.20;93.84
55424;BME280;41294;42.666;23.350;2022-11-15T13:34:45;95119.88;;;9.35;92.98
55424;BME280;41294;42.666;23.350;2022-11-15T13:39:48;95116.72;;;9.28;93.68
55424;BME280;41294;42.666;23.350;2022-11-15T13:42:19;95114.03;;;9.53;92.32
55424;BME280;41294;42.666;23.350;2022-11-15T13:45:00;95113.34;;;9.74;91.21
55424;BME280;41294;42.666;23.350;2022-11-15T13:47:27;95116.28;;;9.76;90.42
55424;BME280;41294;42.666;23.350;2022-11-15T13:49:56;95112.28;;;9.71;90.73
55424;BME280;41294;42.666;23.350;2022-11-15T13:52:27;95114.75;;;9.87;90.07
55424;BME280;41294;42.666;23.350;2022-11-15T13:54:55;95110.22;;;9.87;89.60
55424;BME280;41294;42.666;23.350;2022-11-15T13:57:28;95112.41;;;10.01;88.71
55424;BME280;41294;42.666;23.350;2022-11-15T13:59:59;95109.69;;;9.92;89.65
55424;BME280;41294;42.666;23.350;2022-11-15T14:02:29;95105.16;;;10.14;88.20
55424;BME280;41294;42.666;23.350;2022-11-15T14:04:57;95098.59;;;9.97;89.11
55424;BME280;41294;42.666;23.350;2022-11-15T14:07:27;95099.88;;;9.93;88.93
55424;BME280;41294;42.666;23.350;2022-11-15T14:09:54;95093.53;;;9.81;90.10
55424;BME280;41294;42.666;23.350;2022-11-15T14:12:38;95100.97;;;9.83;90.19
55424;BME280;41294;42.666;23.350;2022-11-15T14:15:29;95098.41;;;9.71;90.57
55424;BME280;41294;42.666;23.350;2022-11-15T14:17:55;95097.44;;;9.77;90.60
55424;BME280;41294;42.666;23.350;2022-11-15T14:20:38;95086.59;;;9.96;89.86
55424;BME280;41294;42.666;23.350;2022-11-15T14:23:18;95088.91;;;10.07;88.61
55424;BME280;41294;42.666;23.350;2022-11-15T14:25:56;95088.47;;;10.08;88.66
55424;BME280;41294;42.666;23.350;2022-11-15T14:30:51;95092.75;;;10.15;88.23
55424;BME280;41294;42.666;23.350;2022-11-15T14:35:42;95093.69;;;9.99;88.95